Time;durP1;ratioP1;P1;durP2;ratioP2;P2;SDS_P1;SDS_P2;PMS_P1;PMS_P2;Temp;Humidity;BMP_temperature;BMP_pressure;BME280_temperature;BME280_humidity;BME280_pressure;Samples;Min_cycle;Max_cycle;Signal;HPM_P1;HPM_P2
2023/07/16 00:00:29;;;;;;;7.25;6.30;;;;;;;;;;5076950;28;20657;-60
2023/07/16 00:02:57;;;;;;;6.75;6.05;;;;;;;;;;5090935;28;20247;-62
2023/07/16 00:05:24;;;;;;;9.23;6.68;;;;;;;;;;5080327;28;20220;-64
2023/07/16 00:07:51;;;;;;;6.97;6.30;;;;;;;;;;5090989;28;20197;-62
2023/07/16 00:10:18;;;;;;;7.65;6.18;;;;;;;;;;5080958;28;20708;-62
2023/07/16 00:12:46;;;;;;;7.53;6.72;;;;;;;;;;5079116;28;20294;-62
2023/07/16 00:15:13;;;;;;;6.82;5.85;;;;;;;;;;5082245;28;20219;-61
2023/07/16 00:17:41;;;;;;;7.55;6.65;;;;;;;;;;5084014;28;20204;-62
2023/07/16 00:20:09;;;;;;;7.13;5.97;;;;;;;;;;5067756;28;20204;-62
2023/07/16 00:22:38;;;;;;;8.30;6.47;;;;;;;;;;5075796;28;20522;-62
2023/07/16 00:25:07;;;;;;;8.40;6.22;;;;;;;;;;5083257;28;20235;-62
2023/07/16 00:27:34;;;;;;;3.25;3.00;;;;;;;;;;5085087;28;20258;-63
2023/07/16 00:30:01;;;;;;;2.28;2.08;;;;;;;;;;5073694;28;20201;-61
2023/07/16 00:32:29;;;;;;;1.80;1.70;;;;;;;;;;5076300;28;20201;-62
2023/07/16 00:34:56;;;;;;;1.67;1.58;;;;;;;;;;5076183;28;20295;-61
2023/07/16 00:37:24;;;;;;;1.40;1.40;;;;;;;;;;5082569;28;20672;-61
2023/07/16 00:39:51;;;;;;;1.30;1.30;;;;;;;;;;5065073;28;20278;-65
2023/07/16 00:42:18;;;;;;;2.22;1.48;;;;;;;;;;5074860;28;20228;-62
2023/07/16 00:44:45;;;;;;;1.30;1.30;;;;;;;;;;5065460;28;20221;-60
2023/07/16 00:47:13;;;;;;;1.77;1.20;;;;;;;;;;5083870;28;20238;-61
2023/07/16 00:49:40;;;;;;;2.03;1.35;;;;;;;;;;5081377;28;20209;-62
2023/07/16 00:52:10;;;;;;;1.70;1.45;;;;;;;;;;5086244;28;20231;-63
2023/07/16 00:54:38;;;;;;;1.77;1.40;;;;;;;;;;5080772;28;20208;-61
2023/07/16 00:57:05;;;;;;;1.52;1.40;;;;;;;;;;5082792;28;20254;-62
2023/07/16 00:59:32;;;;;;;1.63;1.30;;;;;;;;;;5077284;28;20201;-62
2023/07/16 01:02:00;;;;;;;2.20;1.70;;;;;;;;;;5078016;28;20228;-61
2023/07/16 01:04:27;;;;;;;1.48;1.30;;;;;;;;;;5090183;28;20307;-63
2023/07/16 01:06:58;;;;;;;1.50;1.40;;;;;;;;;;5080764;28;20670;-64
2023/07/16 01:09:26;;;;;;;1.23;1.23;;;;;;;;;;5093589;28;20289;-64
2023/07/16 01:11:54;;;;;;;2.08;1.58;;;;;;;;;;5077737;28;20254;-64
2023/07/16 01:14:22;;;;;;;1.35;1.20;;;;;;;;;;5083617;28;20291;-63
2023/07/16 01:16:49;;;;;;;1.23;1.20;;;;;;;;;;5085110;28;20652;-63
2023/07/16 01:19:16;;;;;;;1.70;1.60;;;;;;;;;;5087636;28;20244;-63
2023/07/16 01:22:02;;;;;;;1.58;1.42;;;;;;;;;;5080463;28;20225;-63
2023/07/16 01:24:38;;;;;;;5.93;2.92;;;;;;;;;;5086656;28;20212;-64
2023/07/16 01:27:11;;;;;;;10.40;7.97;;;;;;;;;;5063808;28;20216;-64
2023/07/16 01:29:57;;;;;;;8.57;7.28;;;;;;;;;;5051396;28;20236;-62
2023/07/16 01:32:25;;;;;;;2.92;2.20;;;;;;;;;;5082636;28;20190;-64
2023/07/16 01:34:53;;;;;;;2.80;1.73;;;;;;;;;;5082075;28;20300;-62
2023/07/16 01:37:20;;;;;;;3.00;1.63;;;;;;;;;;5074321;28;20205;-62
2023/07/16 01:39:48;;;;;;;4.20;1.83;;;;;;;;;;5076879;28;20201;-63
2023/07/16 01:42:15;;;;;;;4.75;3.50;;;;;;;;;;5074715;28;20247;-62
2023/07/16 01:44:42;;;;;;;6.45;3.33;;;;;;;;;;5077442;28;20201;-63
2023/07/16 01:47:15;;;;;;;21.30;11.40;;;;;;;;;;5078413;28;20197;-63
2023/07/16 01:49:42;;;;;;;35.05;20.80;;;;;;;;;;5077797;28;20201;-63
2023/07/16 01:52:10;;;;;;;5.40;3.65;;;;;;;;;;5077579;28;20223;-63
2023/07/16 01:54:37;;;;;;;7.05;4.53;;;;;;;;;;5078399;28;20197;-63
2023/07/16 01:57:05;;;;;;;11.38;6.63;;;;;;;;;;5078997;28;20594;-63
2023/07/16 01:59:32;;;;;;;17.60;10.10;;;;;;;;;;5077934;28;20714;-64
2023/07/16 02:01:59;;;;;;;8.32;6.82;;;;;;;;;;5089401;28;20217;-63
2023/07/16 02:04:27;;;;;;;2.28;1.30;;;;;;;;;;5074866;28;20208;-64
2023/07/16 02:06:54;;;;;;;5.15;3.83;;;;;;;;;;5082531;28;20231;-61
2023/07/16 02:09:21;;;;;;;2.78;1.50;;;;;;;;;;5088736;28;20201;-63
2023/07/16 02:11:49;;;;;;;7.30;4.63;;;;;;;;;;5077255;28;20648;-64
2023/07/16 02:14:16;;;;;;;5.93;2.90;;;;;;;;;;5081404;28;20664;-63
2023/07/16 02:16:43;;;;;;;1.50;1.40;;;;;;;;;;5068439;28;20211;-62
2023/07/16 02:19:11;;;;;;;2.20;1.52;;;;;;;;;;5080512;28;20436;-63
2023/07/16 02:21:39;;;;;;;1.40;1.30;;;;;;;;;;5076245;28;20320;-61
2023/07/16 02:24:07;;;;;;;1.70;1.60;;;;;;;;;;5077945;28;20205;-62
2023/07/16 02:26:34;;;;;;;1.50;1.40;;;;;;;;;;5082459;28;20389;-63
2023/07/16 02:29:02;;;;;;;2.30;1.40;;;;;;;;;;5074076;28;20212;-63
2023/07/16 02:31:30;;;;;;;1.52;1.40;;;;;;;;;;5081837;28;20227;-64
2023/07/16 02:33:57;;;;;;;4.22;1.40;;;;;;;;;;5071119;28;20807;-64
2023/07/16 02:36:24;;;;;;;2.67;1.80;;;;;;;;;;5062964;28;20286;-63
2023/07/16 02:38:52;;;;;;;2.80;1.45;;;;;;;;;;5077725;28;20601;-61
2023/07/16 02:41:19;;;;;;;1.23;1.23;;;;;;;;;;5080369;28;20593;-62
2023/07/16 02:43:46;;;;;;;3.63;1.60;;;;;;;;;;5079183;28;20507;-63
2023/07/16 02:46:14;;;;;;;3.20;1.38;;;;;;;;;;5076398;28;20704;-63
2023/07/16 02:48:41;;;;;;;1.58;1.40;;;;;;;;;;5076115;28;20205;-63
2023/07/16 02:51:09;;;;;;;2.33;1.58;;;;;;;;;;5081810;28;20659;-63
2023/07/16 02:53:36;;;;;;;2.50;1.30;;;;;;;;;;5074873;28;20193;-63
2023/07/16 02:56:03;;;;;;;2.83;1.50;;;;;;;;;;5076992;28;20209;-63
2023/07/16 02:58:30;;;;;;;1.33;1.23;;;;;;;;;;5067577;28;20255;-63
2023/07/16 03:00:58;;;;;;;1.65;1.55;;;;;;;;;;5079849;28;20235;-62
2023/07/16 03:03:26;;;;;;;2.22;1.40;;;;;;;;;;5074704;28;20480;-63
2023/07/16 03:06:01;;;;;;;1.40;1.30;;;;;;;;;;5083416;28;20253;-63
2023/07/16 03:08:29;;;;;;;1.92;1.45;;;;;;;;;;5066724;28;20231;-63
2023/07/16 03:11:07;;;;;;;3.95;1.52;;;;;;;;;;5066101;28;20224;-60
2023/07/16 03:13:34;;;;;;;1.83;1.73;;;;;;;;;;5066510;28;20217;-61
2023/07/16 03:16:01;;;;;;;1.85;1.63;;;;;;;;;;5073070;28;20213;-62
2023/07/16 03:18:29;;;;;;;2.83;1.67;;;;;;;;;;5066101;28;20217;-61
2023/07/16 03:20:57;;;;;;;1.70;1.60;;;;;;;;;;5075309;28;20218;-64
2023/07/16 03:23:24;;;;;;;1.52;1.45;;;;;;;;;;5071369;28;20300;-64
2023/07/16 03:25:52;;;;;;;1.90;1.80;;;;;;;;;;5073198;28;20221;-62
2023/07/16 03:28:20;;;;;;;1.85;1.67;;;;;;;;;;5075343;28;20200;-63
2023/07/16 03:30:48;;;;;;;1.50;1.40;;;;;;;;;;5057993;28;20249;-62
2023/07/16 03:33:15;;;;;;;1.50;1.40;;;;;;;;;;5069215;28;20260;-61
2023/07/16 03:35:43;;;;;;;1.65;1.55;;;;;;;;;;5068219;28;20706;-61
2023/07/16 03:38:14;;;;;;;4.70;1.67;;;;;;;;;;5070630;28;20206;-63
2023/07/16 03:40:43;;;;;;;3.03;1.63;;;;;;;;;;5067150;28;20237;-63
2023/07/16 03:43:10;;;;;;;3.30;1.50;;;;;;;;;;5085004;28;20197;-64
2023/07/16 03:45:38;;;;;;;1.55;1.45;;;;;;;;;;5085941;28;20437;-62
2023/07/16 03:48:05;;;;;;;2.20;1.70;;;;;;;;;;5086589;28;20197;-62
2023/07/16 03:50:34;;;;;;;3.83;1.80;;;;;;;;;;5070756;28;20234;-62
2023/07/16 03:53:02;;;;;;;2.00;1.80;;;;;;;;;;5079947;28;20257;-63
2023/07/16 03:55:30;;;;;;;1.95;1.80;;;;;;;;;;5085579;28;20856;-61
2023/07/16 03:57:58;;;;;;;2.50;1.52;;;;;;;;;;5085711;28;20200;-63
2023/07/16 04:00:26;;;;;;;2.58;1.50;;;;;;;;;;5077092;28;20233;-63
2023/07/16 04:02:53;;;;;;;1.70;1.60;;;;;;;;;;5082643;28;20280;-62
2023/07/16 04:05:21;;;;;;;2.85;1.70;;;;;;;;;;5080736;28;20237;-62
2023/07/16 04:07:51;;;;;;;1.75;1.50;;;;;;;;;;5091712;28;20210;-62
2023/07/16 04:10:18;;;;;;;1.80;1.70;;;;;;;;;;5057019;28;20220;-62
2023/07/16 04:12:45;;;;;;;2.45;1.60;;;;;;;;;;5069446;28;20206;-61
2023/07/16 04:15:12;;;;;;;1.70;1.50;;;;;;;;;;5074387;28;20210;-61
2023/07/16 04:17:40;;;;;;;2.58;1.98;;;;;;;;;;5073011;28;20202;-61
2023/07/16 04:20:08;;;;;;;4.28;3.28;;;;;;;;;;5072764;28;20580;-62
2023/07/16 04:22:35;;;;;;;2.55;2.20;;;;;;;;;;5066268;28;20279;-62
2023/07/16 04:25:03;;;;;;;4.40;2.35;;;;;;;;;;5072011;28;20201;-61
2023/07/16 04:27:31;;;;;;;1.75;1.65;;;;;;;;;;5069106;28;20233;-63
2023/07/16 04:29:58;;;;;;;3.88;2.00;;;;;;;;;;5062186;28;20684;-61
2023/07/16 04:32:26;;;;;;;2.00;1.58;;;;;;;;;;5070304;28;20638;-63
2023/07/16 04:34:53;;;;;;;2.67;1.60;;;;;;;;;;5058789;28;20704;-63
2023/07/16 04:37:21;;;;;;;3.58;1.70;;;;;;;;;;5086805;28;20691;-63
2023/07/16 04:39:48;;;;;;;1.60;1.50;;;;;;;;;;5060481;28;20335;-61
2023/07/16 04:42:16;;;;;;;2.20;2.00;;;;;;;;;;5057295;28;20225;-61
2023/07/16 04:44:44;;;;;;;2.25;1.40;;;;;;;;;;5069372;28;20251;-62
2023/07/16 04:47:11;;;;;;;2.00;1.67;;;;;;;;;;5063661;28;20243;-61
2023/07/16 04:49:38;;;;;;;2.15;1.60;;;;;;;;;;5064683;28;20220;-63
2023/07/16 04:52:06;;;;;;;6.22;3.97;;;;;;;;;;5073594;28;20220;-62
2023/07/16 04:54:37;;;;;;;16.13;9.77;;;;;;;;;;5081039;28;20204;-63
2023/07/16 04:57:06;;;;;;;11.90;8.10;;;;;;;;;;5064051;28;20252;-62
2023/07/16 04:59:34;;;;;;;7.20;4.45;;;;;;;;;;5070798;28;20222;-61
2023/07/16 05:02:03;;;;;;;6.82;3.35;;;;;;;;;;5074199;28;20721;-62
2023/07/16 05:04:30;;;;;;;3.17;2.33;;;;;;;;;;5067711;28;20213;-61
2023/07/16 05:06:58;;;;;;;4.45;1.90;;;;;;;;;;5073090;28;20229;-62
2023/07/16 05:09:25;;;;;;;5.43;2.72;;;;;;;;;;5068446;28;20197;-62
2023/07/16 05:11:52;;;;;;;5.65;3.00;;;;;;;;;;5076544;28;20229;-62
2023/07/16 05:14:19;;;;;;;2.35;2.13;;;;;;;;;;5068095;28;20705;-61
2023/07/16 05:16:47;;;;;;;3.03;1.92;;;;;;;;;;5079044;28;20236;-62
2023/07/16 05:19:14;;;;;;;4.57;1.63;;;;;;;;;;5082389;28;20231;-62
2023/07/16 05:21:42;;;;;;;4.35;1.70;;;;;;;;;;5070778;28;20281;-62
2023/07/16 05:24:09;;;;;;;3.15;1.65;;;;;;;;;;5080301;28;20672;-62
2023/07/16 05:26:37;;;;;;;3.05;1.73;;;;;;;;;;5064557;28;20751;-61
2023/07/16 05:29:04;;;;;;;3.22;1.60;;;;;;;;;;5069881;28;20197;-62
2023/07/16 05:31:31;;;;;;;18.23;8.85;;;;;;;;;;5078354;28;20613;-63
2023/07/16 05:33:59;;;;;;;16.05;7.32;;;;;;;;;;5072028;28;20211;-63
2023/07/16 05:36:26;;;;;;;4.90;2.45;;;;;;;;;;5068993;28;20217;-61
2023/07/16 05:38:53;;;;;;;2.45;1.92;;;;;;;;;;5074540;28;20201;-62
2023/07/16 05:41:21;;;;;;;2.38;2.00;;;;;;;;;;5082091;28;20712;-62
2023/07/16 05:43:50;;;;;;;1.90;1.70;;;;;;;;;;5080988;28;20223;-63
2023/07/16 05:46:17;;;;;;;2.83;2.08;;;;;;;;;;5085017;28;20220;-63
2023/07/16 05:48:45;;;;;;;1.90;1.80;;;;;;;;;;5064986;28;20223;-61
2023/07/16 05:51:13;;;;;;;2.40;1.50;;;;;;;;;;5086127;28;20220;-63
2023/07/16 05:53:40;;;;;;;1.73;1.63;;;;;;;;;;5082364;28;20845;-62
2023/07/16 05:56:07;;;;;;;2.50;1.80;;;;;;;;;;5083759;28;20239;-61
2023/07/16 05:58:35;;;;;;;2.55;1.75;;;;;;;;;;5084317;28;20217;-61
2023/07/16 06:01:02;;;;;;;1.80;1.50;;;;;;;;;;5086935;28;20225;-61
2023/07/16 06:03:29;;;;;;;1.90;1.77;;;;;;;;;;5074234;28;20215;-62
2023/07/16 06:05:57;;;;;;;3.50;1.70;;;;;;;;;;5083653;28;20560;-60
2023/07/16 06:08:24;;;;;;;2.22;1.63;;;;;;;;;;5076188;28;20621;-61
2023/07/16 06:10:52;;;;;;;2.25;1.95;;;;;;;;;;5083837;28;20280;-64
2023/07/16 06:13:19;;;;;;;2.50;1.70;;;;;;;;;;5066682;28;20262;-60
2023/07/16 06:15:47;;;;;;;2.05;1.40;;;;;;;;;;5085384;28;20205;-60
2023/07/16 06:18:14;;;;;;;2.63;2.40;;;;;;;;;;5091863;28;20232;-60
2023/07/16 06:20:45;;;;;;;1.85;1.70;;;;;;;;;;5073854;28;20298;-63
2023/07/16 06:23:13;;;;;;;1.63;1.50;;;;;;;;;;5069118;28;20627;-65
2023/07/16 06:25:49;;;;;;;1.88;1.65;;;;;;;;;;5071964;28;20222;-63
2023/07/16 06:28:17;;;;;;;2.38;1.65;;;;;;;;;;5086659;28;20243;-61
2023/07/16 06:30:44;;;;;;;1.98;1.75;;;;;;;;;;5080020;28;20221;-61
2023/07/16 06:33:12;;;;;;;3.78;1.60;;;;;;;;;;5087772;28;20213;-62
2023/07/16 06:35:40;;;;;;;3.88;1.80;;;;;;;;;;5073933;28;20212;-60
2023/07/16 06:38:07;;;;;;;1.77;1.67;;;;;;;;;;5080287;28;20657;-63
2023/07/16 06:40:34;;;;;;;1.98;1.77;;;;;;;;;;5067105;28;20312;-60
2023/07/16 06:43:02;;;;;;;2.70;1.80;;;;;;;;;;5073718;28;20217;-61
2023/07/16 06:45:29;;;;;;;4.65;1.80;;;;;;;;;;5067990;28;20224;-61
2023/07/16 06:48:00;;;;;;;2.33;1.63;;;;;;;;;;5068542;28;20226;-63
2023/07/16 06:50:27;;;;;;;4.18;1.80;;;;;;;;;;5078099;28;20232;-60
2023/07/16 06:52:54;;;;;;;3.05;1.90;;;;;;;;;;5076604;28;20684;-63
2023/07/16 06:55:22;;;;;;;2.63;1.88;;;;;;;;;;5073974;28;20688;-61
2023/07/16 06:57:49;;;;;;;1.80;1.70;;;;;;;;;;5072900;28;20618;-61
2023/07/16 07:00:16;;;;;;;2.05;1.60;;;;;;;;;;5056568;28;20215;-61
2023/07/16 07:02:44;;;;;;;1.98;1.73;;;;;;;;;;5077250;28;20668;-60
2023/07/16 07:05:12;;;;;;;3.17;1.70;;;;;;;;;;5079987;28;20205;-60
2023/07/16 07:07:39;;;;;;;1.90;1.80;;;;;;;;;;5078996;28;20232;-65
2023/07/16 07:10:07;;;;;;;1.63;1.50;;;;;;;;;;5077797;28;20300;-61
2023/07/16 07:12:37;;;;;;;3.72;1.92;;;;;;;;;;5080565;28;20976;-62
2023/07/16 07:15:08;;;;;;;2.95;1.90;;;;;;;;;;5073289;28;20225;-62
2023/07/16 07:17:35;;;;;;;2.20;1.98;;;;;;;;;;5080330;28;20287;-61
2023/07/16 07:20:03;;;;;;;4.45;1.77;;;;;;;;;;5065339;28;20699;-62
2023/07/16 07:22:30;;;;;;;2.33;2.03;;;;;;;;;;5069713;28;20208;-63
2023/07/16 07:24:58;;;;;;;2.67;1.88;;;;;;;;;;5071577;28;20292;-61
2023/07/16 07:27:25;;;;;;;1.95;1.85;;;;;;;;;;5077034;28;20317;-64
2023/07/16 07:29:55;;;;;;;2.00;1.85;;;;;;;;;;5072619;28;20210;-61
2023/07/16 07:32:22;;;;;;;1.92;1.80;;;;;;;;;;5058384;28;20225;-62
2023/07/16 07:34:50;;;;;;;2.63;1.92;;;;;;;;;;5066674;28;20288;-61
2023/07/16 07:37:17;;;;;;;3.30;1.98;;;;;;;;;;5070675;28;20205;-61
2023/07/16 07:39:47;;;;;;;2.33;1.80;;;;;;;;;;5070936;28;20201;-61
2023/07/16 07:42:15;;;;;;;2.05;1.80;;;;;;;;;;5059962;28;20354;-62
2023/07/16 07:44:42;;;;;;;2.17;1.63;;;;;;;;;;5065944;28;20193;-61
2023/07/16 07:47:09;;;;;;;1.80;1.70;;;;;;;;;;5053027;28;20221;-61
2023/07/16 07:49:36;;;;;;;2.17;1.90;;;;;;;;;;5067479;28;20277;-60
2023/07/16 07:52:05;;;;;;;2.45;1.67;;;;;;;;;;5063731;28;20243;-61
2023/07/16 07:54:33;;;;;;;1.67;1.58;;;;;;;;;;5041509;28;20692;-61
2023/07/16 07:57:04;;;;;;;3.92;1.70;;;;;;;;;;5067382;28;20707;-62
2023/07/16 07:59:33;;;;;;;1.73;1.58;;;;;;;;;;5059275;28;20296;-61
2023/07/16 08:02:03;;;;;;;1.88;1.58;;;;;;;;;;5063532;28;20235;-61
2023/07/16 08:04:32;;;;;;;1.88;1.50;;;;;;;;;;5072757;28;20656;-62
2023/07/16 08:06:59;;;;;;;2.75;2.15;;;;;;;;;;5074543;28;20205;-62
2023/07/16 08:09:27;;;;;;;3.30;1.63;;;;;;;;;;5049094;28;20206;-61
2023/07/16 08:11:54;;;;;;;1.90;1.52;;;;;;;;;;5068391;28;20227;-62
2023/07/16 08:14:22;;;;;;;3.05;1.52;;;;;;;;;;5068098;28;20229;-64
2023/07/16 08:16:49;;;;;;;3.10;1.60;;;;;;;;;;5069723;28;20651;-61
2023/07/16 08:19:16;;;;;;;1.52;1.42;;;;;;;;;;5066480;28;20228;-61
2023/07/16 08:21:44;;;;;;;1.70;1.60;;;;;;;;;;5067734;28;20233;-61
2023/07/16 08:24:11;;;;;;;2.97;1.73;;;;;;;;;;5068485;28;20209;-61
2023/07/16 08:26:39;;;;;;;1.98;1.50;;;;;;;;;;5069020;28;20216;-62
2023/07/16 08:29:06;;;;;;;2.25;1.70;;;;;;;;;;5065814;28;20669;-62
2023/07/16 08:31:33;;;;;;;1.50;1.40;;;;;;;;;;5057362;28;20221;-61
2023/07/16 08:34:01;;;;;;;1.73;1.63;;;;;;;;;;5071061;28;20283;-62
2023/07/16 08:36:31;;;;;;;1.63;1.40;;;;;;;;;;5052669;28;20212;-62
2023/07/16 08:38:58;;;;;;;2.30;2.10;;;;;;;;;;5068144;28;20206;-61
2023/07/16 08:41:26;;;;;;;2.88;1.70;;;;;;;;;;5066381;28;20229;-62
2023/07/16 08:43:54;;;;;;;3.65;1.75;;;;;;;;;;5069290;28;20201;-61
2023/07/16 08:46:21;;;;;;;2.92;1.50;;;;;;;;;;5071279;28;20208;-61
2023/07/16 08:48:49;;;;;;;2.50;1.60;;;;;;;;;;5070176;28;20228;-62
2023/07/16 08:51:16;;;;;;;2.45;1.80;;;;;;;;;;5066494;28;20225;-62
2023/07/16 08:53:45;;;;;;;1.70;1.52;;;;;;;;;;5065247;28;20361;-61
2023/07/16 08:56:12;;;;;;;4.53;1.73;;;;;;;;;;5066912;28;20212;-60
2023/07/16 08:58:40;;;;;;;2.35;1.60;;;;;;;;;;5050170;28;20272;-61
2023/07/16 09:01:09;;;;;;;1.52;1.42;;;;;;;;;;5071535;28;20225;-61
2023/07/16 09:03:37;;;;;;;3.55;1.80;;;;;;;;;;5072550;28;20228;-60
2023/07/16 09:06:04;;;;;;;2.03;1.83;;;;;;;;;;5069755;28;20208;-60
2023/07/16 09:08:32;;;;;;;2.25;1.73;;;;;;;;;;5067408;28;20788;-63
2023/07/16 09:10:59;;;;;;;2.58;1.90;;;;;;;;;;5067330;28;20271;-61
2023/07/16 09:13:27;;;;;;;1.75;1.65;;;;;;;;;;5069757;28;22526;-63
2023/07/16 09:15:56;;;;;;;1.75;1.30;;;;;;;;;;5065718;28;20197;-63
2023/07/16 09:18:25;;;;;;;2.10;1.75;;;;;;;;;;5073057;28;20227;-62
2023/07/16 09:20:56;;;;;;;2.45;1.70;;;;;;;;;;5067669;28;20251;-63
2023/07/16 09:23:25;;;;;;;2.10;1.50;;;;;;;;;;5068656;28;20197;-62
2023/07/16 09:25:53;;;;;;;2.70;1.60;;;;;;;;;;5075226;28;20209;-62
2023/07/16 09:28:21;;;;;;;2.25;1.77;;;;;;;;;;5066682;28;20225;-64
2023/07/16 09:30:48;;;;;;;3.28;1.80;;;;;;;;;;5068387;28;20227;-62
2023/07/16 09:33:16;;;;;;;3.40;1.42;;;;;;;;;;5064282;28;20888;-62
2023/07/16 09:35:44;;;;;;;3.97;1.67;;;;;;;;;;5064646;28;20251;-62
2023/07/16 09:38:12;;;;;;;5.25;1.85;;;;;;;;;;5068504;28;20220;-62
2023/07/16 09:40:42;;;;;;;2.63;1.70;;;;;;;;;;5063179;28;20236;-62
2023/07/16 09:43:10;;;;;;;5.30;1.90;;;;;;;;;;5070408;28;20684;-61
2023/07/16 09:45:44;;;;;;;3.00;2.08;;;;;;;;;;5072053;28;20201;-62
2023/07/16 09:48:11;;;;;;;3.72;1.90;;;;;;;;;;5071249;28;20213;-61
2023/07/16 09:50:39;;;;;;;3.00;1.65;;;;;;;;;;5049310;28;20237;-61
2023/07/16 09:53:07;;;;;;;3.70;1.60;;;;;;;;;;5069914;28;20201;-61
2023/07/16 09:55:35;;;;;;;2.72;1.65;;;;;;;;;;5070999;28;20711;-62
2023/07/16 09:58:07;;;;;;;4.35;1.90;;;;;;;;;;5069481;28;20244;-61
2023/07/16 10:00:35;;;;;;;2.70;1.75;;;;;;;;;;5073881;28;20247;-61
2023/07/16 10:03:02;;;;;;;2.75;1.60;;;;;;;;;;5074817;28;20223;-61
2023/07/16 10:05:30;;;;;;;2.75;2.08;;;;;;;;;;5070505;28;20204;-63
2023/07/16 10:07:59;;;;;;;2.60;1.65;;;;;;;;;;5074053;28;20792;-61
2023/07/16 10:10:48;;;;;;;1.90;1.80;;;;;;;;;;5079729;28;20862;-63
2023/07/16 10:13:16;;;;;;;2.75;1.60;;;;;;;;;;5067544;28;20745;-63
2023/07/16 10:15:59;;;;;;;5.38;2.97;;;;;;;;;;5067489;28;20210;-62
2023/07/16 10:18:27;;;;;;;3.30;2.72;;;;;;;;;;5065505;28;20208;-63
2023/07/16 10:20:55;;;;;;;2.40;1.90;;;;;;;;;;5068093;28;20569;-62
2023/07/16 10:23:25;;;;;;;5.85;2.33;;;;;;;;;;5074091;28;20205;-61
2023/07/16 10:26:06;;;;;;;3.63;1.90;;;;;;;;;;5066114;28;20258;-61
2023/07/16 10:28:34;;;;;;;4.05;1.90;;;;;;;;;;5074994;28;20224;-62
2023/07/16 10:31:01;;;;;;;1.98;1.75;;;;;;;;;;5064971;28;20267;-62
2023/07/16 10:33:29;;;;;;;3.13;1.90;;;;;;;;;;5071387;28;20205;-61
2023/07/16 10:35:58;;;;;;;2.45;1.92;;;;;;;;;;5070908;28;20204;-62
2023/07/16 10:38:26;;;;;;;4.28;1.98;;;;;;;;;;5073316;28;20209;-64
2023/07/16 10:40:53;;;;;;;2.83;2.00;;;;;;;;;;5085486;28;20229;-62
2023/07/16 10:43:20;;;;;;;3.45;2.00;;;;;;;;;;5075163;28;20209;-64
2023/07/16 10:45:48;;;;;;;2.20;1.83;;;;;;;;;;5084019;28;20549;-60
2023/07/16 10:48:15;;;;;;;3.08;1.80;;;;;;;;;;5076377;28;20260;-62
2023/07/16 10:50:42;;;;;;;3.25;1.67;;;;;;;;;;5071794;28;20275;-62
2023/07/16 10:53:11;;;;;;;1.80;1.52;;;;;;;;;;5079710;28;20454;-61
2023/07/16 10:55:38;;;;;;;2.80;1.88;;;;;;;;;;5088083;28;20689;-63
2023/07/16 10:58:06;;;;;;;2.05;1.85;;;;;;;;;;5078618;28;20208;-62
2023/07/16 11:00:38;;;;;;;2.67;1.90;;;;;;;;;;5079990;28;20232;-62
2023/07/16 11:03:05;;;;;;;2.92;2.10;;;;;;;;;;5080984;28;20292;-62
2023/07/16 11:05:32;;;;;;;3.20;1.90;;;;;;;;;;5080906;28;20228;-62
2023/07/16 11:08:00;;;;;;;4.68;3.03;;;;;;;;;;5074259;28;20700;-62
2023/07/16 11:10:30;;;;;;;1.70;1.58;;;;;;;;;;5072480;28;20251;-62
2023/07/16 11:12:58;;;;;;;3.35;1.80;;;;;;;;;;5081229;28;20313;-62
2023/07/16 11:15:34;;;;;;;2.15;1.77;;;;;;;;;;5077920;28;20205;-62
2023/07/16 11:18:02;;;;;;;2.58;2.20;;;;;;;;;;5077466;28;20209;-61
2023/07/16 11:20:30;;;;;;;2.17;1.80;;;;;;;;;;5073205;28;20240;-62
2023/07/16 11:22:59;;;;;;;2.00;1.80;;;;;;;;;;5081695;28;20207;-62
2023/07/16 11:25:27;;;;;;;3.08;2.25;;;;;;;;;;5090742;28;20243;-63
2023/07/16 11:27:56;;;;;;;4.13;2.15;;;;;;;;;;5085325;28;21162;-61
2023/07/16 11:30:24;;;;;;;2.47;1.70;;;;;;;;;;5063348;28;20218;-61
2023/07/16 11:32:52;;;;;;;2.60;2.33;;;;;;;;;;5074344;28;20193;-62
2023/07/16 11:35:21;;;;;;;2.05;1.60;;;;;;;;;;5060300;28;20210;-62
2023/07/16 11:37:48;;;;;;;2.10;1.85;;;;;;;;;;5066453;28;20225;-61
2023/07/16 11:40:17;;;;;;;1.98;1.70;;;;;;;;;;5065348;28;20215;-61
2023/07/16 11:42:45;;;;;;;3.83;2.03;;;;;;;;;;5054497;28;20422;-61
2023/07/16 11:45:17;;;;;;;3.67;1.85;;;;;;;;;;5073053;28;20722;-61
2023/07/16 11:47:46;;;;;;;3.88;2.75;;;;;;;;;;5071184;28;20225;-63
2023/07/16 11:50:14;;;;;;;1.85;1.73;;;;;;;;;;5070887;28;20208;-61
2023/07/16 11:52:41;;;;;;;2.38;2.00;;;;;;;;;;5079541;28;20676;-61
2023/07/16 11:55:09;;;;;;;2.67;1.70;;;;;;;;;;5074646;28;20759;-61
2023/07/16 11:57:36;;;;;;;2.05;1.88;;;;;;;;;;5072728;28;20202;-61
2023/07/16 12:00:04;;;;;;;1.92;1.52;;;;;;;;;;5081199;28;20213;-62
2023/07/16 12:02:32;;;;;;;4.22;2.05;;;;;;;;;;5083658;28;20232;-62
2023/07/16 12:05:00;;;;;;;2.08;1.67;;;;;;;;;;5083778;28;20220;-62
2023/07/16 12:07:35;;;;;;;1.92;1.77;;;;;;;;;;5101522;28;20215;-61
2023/07/16 12:10:03;;;;;;;2.00;1.80;;;;;;;;;;5094721;28;20200;-62
2023/07/16 12:12:31;;;;;;;4.30;2.10;;;;;;;;;;5080785;28;20971;-61
2023/07/16 12:14:58;;;;;;;3.25;1.80;;;;;;;;;;5077118;28;20197;-63
2023/07/16 12:17:25;;;;;;;2.47;1.90;;;;;;;;;;5071507;28;20672;-61
2023/07/16 12:19:53;;;;;;;2.70;1.88;;;;;;;;;;5071872;28;20203;-61
2023/07/16 12:22:20;;;;;;;3.30;2.10;;;;;;;;;;5092755;28;20333;-61
2023/07/16 12:24:47;;;;;;;2.60;1.75;;;;;;;;;;5090728;28;20242;-61
2023/07/16 12:27:18;;;;;;;2.42;1.90;;;;;;;;;;5090042;28;20201;-61
2023/07/16 12:29:45;;;;;;;3.00;1.90;;;;;;;;;;5091557;28;20221;-62
2023/07/16 12:32:13;;;;;;;2.17;1.70;;;;;;;;;;5080961;28;20236;-61
2023/07/16 12:34:41;;;;;;;3.80;1.65;;;;;;;;;;5079397;28;20201;-61
2023/07/16 12:37:08;;;;;;;5.00;2.28;;;;;;;;;;5079665;28;20238;-61
2023/07/16 12:39:35;;;;;;;2.25;1.90;;;;;;;;;;5074345;28;20206;-61
2023/07/16 12:42:03;;;;;;;2.53;2.20;;;;;;;;;;5059363;28;20229;-61
2023/07/16 12:44:30;;;;;;;2.10;1.90;;;;;;;;;;5082370;28;20679;-61
2023/07/16 12:46:58;;;;;;;2.00;1.77;;;;;;;;;;5091856;28;20208;-61
2023/07/16 12:49:25;;;;;;;3.95;2.17;;;;;;;;;;5094802;28;20495;-61
2023/07/16 12:51:52;;;;;;;2.10;1.77;;;;;;;;;;5087883;28;20227;-62
2023/07/16 12:54:20;;;;;;;3.40;1.90;;;;;;;;;;5062534;28;20212;-62
2023/07/16 12:56:47;;;;;;;2.53;1.95;;;;;;;;;;5077706;28;20197;-61
2023/07/16 12:59:14;;;;;;;3.38;1.80;;;;;;;;;;5081044;28;20208;-61
2023/07/16 13:01:41;;;;;;;1.88;1.73;;;;;;;;;;5082139;28;20289;-61
2023/07/16 13:04:09;;;;;;;3.47;1.85;;;;;;;;;;5061228;28;20205;-60
2023/07/16 13:06:36;;;;;;;2.33;1.77;;;;;;;;;;5081703;28;20246;-61
2023/07/16 13:09:05;;;;;;;3.65;1.80;;;;;;;;;;5093181;28;20737;-62
2023/07/16 13:11:32;;;;;;;3.25;2.08;;;;;;;;;;5080064;28;20221;-63
2023/07/16 13:14:00;;;;;;;1.90;1.73;;;;;;;;;;5080221;28;20193;-62
2023/07/16 13:16:27;;;;;;;3.28;2.20;;;;;;;;;;5081467;28;20203;-62
2023/07/16 13:18:54;;;;;;;2.38;2.17;;;;;;;;;;5083568;28;20630;-63
2023/07/16 13:21:22;;;;;;;2.30;2.03;;;;;;;;;;5080369;28;20261;-62
2023/07/16 13:23:49;;;;;;;3.40;1.70;;;;;;;;;;5085177;28;20287;-61
2023/07/16 13:26:16;;;;;;;2.10;1.90;;;;;;;;;;5060452;28;20668;-62
2023/07/16 13:28:44;;;;;;;3.65;2.10;;;;;;;;;;5071252;28;20225;-61
2023/07/16 13:31:12;;;;;;;3.25;1.70;;;;;;;;;;5074369;28;20228;-62
2023/07/16 13:33:39;;;;;;;4.75;2.50;;;;;;;;;;5083565;28;20250;-62
2023/07/16 13:36:06;;;;;;;2.30;2.10;;;;;;;;;;5064431;28;20209;-62
2023/07/16 13:38:34;;;;;;;2.83;1.80;;;;;;;;;;5079421;28;20212;-62
2023/07/16 13:41:01;;;;;;;1.80;1.70;;;;;;;;;;5083937;28;20270;-61
2023/07/16 13:43:28;;;;;;;2.00;1.85;;;;;;;;;;5073818;28;20364;-62
2023/07/16 13:45:56;;;;;;;2.67;1.90;;;;;;;;;;5076152;28;20215;-61
2023/07/16 13:48:23;;;;;;;2.47;1.73;;;;;;;;;;5085330;28;20236;-64
2023/07/16 13:50:50;;;;;;;1.75;1.60;;;;;;;;;;5072593;28;21827;-62
2023/07/16 13:53:18;;;;;;;3.80;2.10;;;;;;;;;;5071889;28;20201;-61
2023/07/16 13:55:45;;;;;;;2.53;2.10;;;;;;;;;;5079081;28;20240;-61
2023/07/16 13:58:14;;;;;;;2.78;2.10;;;;;;;;;;5074850;28;20616;-62
2023/07/16 14:00:41;;;;;;;4.45;1.88;;;;;;;;;;5080795;28;20236;-61
2023/07/16 14:03:09;;;;;;;1.70;1.60;;;;;;;;;;5064441;28;20665;-64
2023/07/16 14:05:38;;;;;;;2.85;1.90;;;;;;;;;;5081340;28;20244;-61
2023/07/16 14:08:06;;;;;;;2.97;1.88;;;;;;;;;;5076311;28;20320;-61
2023/07/16 14:10:34;;;;;;;2.20;2.00;;;;;;;;;;5078584;28;20225;-61
2023/07/16 14:13:01;;;;;;;2.17;1.80;;;;;;;;;;5082130;28;20205;-61
2023/07/16 14:15:28;;;;;;;1.75;1.63;;;;;;;;;;5080841;28;20205;-61
2023/07/16 14:17:55;;;;;;;2.78;1.63;;;;;;;;;;5067212;28;20197;-61
2023/07/16 14:20:23;;;;;;;4.32;2.22;;;;;;;;;;5081023;28;20204;-61
2023/07/16 14:22:50;;;;;;;1.88;1.70;;;;;;;;;;5089069;28;20201;-62
2023/07/16 14:25:17;;;;;;;1.98;1.77;;;;;;;;;;5073058;28;20233;-61
2023/07/16 14:27:45;;;;;;;2.42;1.60;;;;;;;;;;5088873;28;20208;-61
2023/07/16 14:30:12;;;;;;;2.03;1.83;;;;;;;;;;5078558;28;20313;-63
2023/07/16 14:32:39;;;;;;;2.10;1.75;;;;;;;;;;5078912;28;20680;-60
2023/07/16 14:35:07;;;;;;;4.45;1.90;;;;;;;;;;5077079;28;20209;-62
2023/07/16 14:37:48;;;;;;;3.05;2.20;;;;;;;;;;5078397;28;20201;-62
2023/07/16 14:40:15;;;;;;;3.50;1.98;;;;;;;;;;5090630;28;20204;-61
2023/07/16 14:42:42;;;;;;;4.32;1.73;;;;;;;;;;5077836;28;20212;-62
2023/07/16 14:45:10;;;;;;;3.38;2.00;;;;;;;;;;5081163;28;20220;-63
2023/07/16 14:47:38;;;;;;;2.42;1.90;;;;;;;;;;5102478;28;20208;-61